sensor_id;sensor_type;location;lat;lon;timestamp;P1;durP1;ratioP1;P2;durP2;ratioP2
12826;SDS011;66927;48.812;9.118;2024-03-02T00:00:19;9.07;;;7.77;;
12826;SDS011;66927;48.812;9.118;2024-03-02T00:02:46;9.00;;;7.50;;
12826;SDS011;66927;48.812;9.118;2024-03-02T00:05:20;7.50;;;6.70;;
12826;SDS011;66927;48.812;9.118;2024-03-02T00:10:26;7.30;;;6.53;;
12826;SDS011;66927;48.812;9.118;2024-03-02T00:13:07;7.67;;;6.87;;
12826;SDS011;66927;48.812;9.118;2024-03-02T00:18:02;8.60;;;7.00;;
12826;SDS011;66927;48.812;9.118;2024-03-02T00:20:29;8.07;;;7.27;;
12826;SDS011;66927;48.812;9.118;2024-03-02T00:22:57;7.97;;;7.17;;
12826;SDS011;66927;48.812;9.118;2024-03-02T00:25:40;7.83;;;7.03;;
12826;SDS011;66927;48.812;9.118;2024-03-02T00:28:18;8.40;;;7.47;;
12826;SDS011;66927;48.812;9.118;2024-03-02T00:30:59;7.67;;;6.87;;
12826;SDS011;66927;48.812;9.118;2024-03-02T00:33:36;7.27;;;6.57;;
12826;SDS011;66927;48.812;9.118;2024-03-02T00:36:09;7.77;;;6.87;;
12826;SDS011;66927;48.812;9.118;2024-03-02T00:38:42;7.33;;;6.63;;
12826;SDS011;66927;48.812;9.118;2024-03-02T00:41:24;7.13;;;6.23;;
12826;SDS011;66927;48.812;9.118;2024-03-02T00:46:38;7.27;;;6.57;;
12826;SDS011;66927;48.812;9.118;2024-03-02T00:49:12;7.43;;;6.63;;
12826;SDS011;66927;48.812;9.118;2024-03-02T00:51:48;8.00;;;7.20;;
12826;SDS011;66927;48.812;9.118;2024-03-02T00:54:15;7.97;;;6.33;;
12826;SDS011;66927;48.812;9.118;2024-03-02T00:56:45;9.43;;;6.37;;
12826;SDS011;66927;48.812;9.118;2024-03-02T00:59:12;8.10;;;7.00;;
12826;SDS011;66927;48.812;9.118;2024-03-02T01:01:37;7.30;;;6.43;;
12826;SDS011;66927;48.812;9.118;2024-03-02T01:04:03;9.03;;;6.93;;
12826;SDS011;66927;48.812;9.118;2024-03-02T01:06:30;7.63;;;6.80;;
12826;SDS011;66927;48.812;9.118;2024-03-02T01:08:56;8.07;;;6.20;;
12826;SDS011;66927;48.812;9.118;2024-03-02T01:11:21;8.57;;;6.63;;
12826;SDS011;66927;48.812;9.118;2024-03-02T01:13:47;7.20;;;6.50;;
12826;SDS011;66927;48.812;9.118;2024-03-02T01:16:13;7.13;;;6.43;;
12826;SDS011;66927;48.812;9.118;2024-03-02T01:18:40;7.67;;;6.40;;
12826;SDS011;66927;48.812;9.118;2024-03-02T01:21:07;7.87;;;6.60;;
12826;SDS011;66927;48.812;9.118;2024-03-02T01:23:33;7.30;;;6.27;;
12826;SDS011;66927;48.812;9.118;2024-03-02T01:25:59;7.13;;;6.33;;
12826;SDS011;66927;48.812;9.118;2024-03-02T01:28:24;7.10;;;6.40;;
12826;SDS011;66927;48.812;9.118;2024-03-02T01:30:50;7.53;;;6.77;;
12826;SDS011;66927;48.812;9.118;2024-03-02T01:33:19;7.90;;;7.10;;
12826;SDS011;66927;48.812;9.118;2024-03-02T01:35:45;7.77;;;6.73;;
12826;SDS011;66927;48.812;9.118;2024-03-02T01:38:11;8.30;;;7.50;;
12826;SDS011;66927;48.812;9.118;2024-03-02T01:40:37;6.43;;;5.83;;
12826;SDS011;66927;48.812;9.118;2024-03-02T01:43:03;8.90;;;6.67;;
12826;SDS011;66927;48.812;9.118;2024-03-02T01:45:30;7.70;;;6.90;;
12826;SDS011;66927;48.812;9.118;2024-03-02T01:47:55;8.10;;;6.70;;
12826;SDS011;66927;48.812;9.118;2024-03-02T01:50:25;8.27;;;7.13;;
12826;SDS011;66927;48.812;9.118;2024-03-02T01:52:58;8.10;;;6.87;;
12826;SDS011;66927;48.812;9.118;2024-03-02T01:55:24;8.17;;;6.63;;
12826;SDS011;66927;48.812;9.118;2024-03-02T01:57:50;9.37;;;7.40;;
12826;SDS011;66927;48.812;9.118;2024-03-02T02:00:17;7.73;;;6.67;;
12826;SDS011;66927;48.812;9.118;2024-03-02T02:02:46;7.70;;;6.70;;
12826;SDS011;66927;48.812;9.118;2024-03-02T02:05:15;8.73;;;7.40;;
12826;SDS011;66927;48.812;9.118;2024-03-02T02:07:41;8.47;;;7.10;;
12826;SDS011;66927;48.812;9.118;2024-03-02T02:10:08;8.30;;;7.43;;
12826;SDS011;66927;48.812;9.118;2024-03-02T02:12:34;7.80;;;7.00;;
12826;SDS011;66927;48.812;9.118;2024-03-02T02:15:00;7.90;;;6.93;;
12826;SDS011;66927;48.812;9.118;2024-03-02T02:17:26;8.73;;;7.13;;
12826;SDS011;66927;48.812;9.118;2024-03-02T02:19:51;8.10;;;7.03;;
12826;SDS011;66927;48.812;9.118;2024-03-02T02:22:17;10.40;;;7.63;;
12826;SDS011;66927;48.812;9.118;2024-03-02T02:24:43;7.80;;;7.00;;
12826;SDS011;66927;48.812;9.118;2024-03-02T02:27:09;7.77;;;6.57;;
12826;SDS011;66927;48.812;9.118;2024-03-02T02:29:35;7.93;;;6.60;;
12826;SDS011;66927;48.812;9.118;2024-03-02T02:32:01;7.70;;;6.90;;
12826;SDS011;66927;48.812;9.118;2024-03-02T02:34:27;7.83;;;6.93;;
12826;SDS011;66927;48.812;9.118;2024-03-02T02:36:53;8.07;;;7.27;;
12826;SDS011;66927;48.812;9.118;2024-03-02T02:39:19;7.60;;;6.53;;
12826;SDS011;66927;48.812;9.118;2024-03-02T02:41:47;8.90;;;7.80;;
12826;SDS011;66927;48.812;9.118;2024-03-02T02:44:13;8.40;;;7.47;;
12826;SDS011;66927;48.812;9.118;2024-03-02T02:46:39;9.33;;;7.37;;
12826;SDS011;66927;48.812;9.118;2024-03-02T02:49:05;9.07;;;8.13;;
12826;SDS011;66927;48.812;9.118;2024-03-02T02:51:31;10.07;;;7.47;;
12826;SDS011;66927;48.812;9.118;2024-03-02T02:53:57;10.00;;;7.40;;
12826;SDS011;66927;48.812;9.118;2024-03-02T02:56:22;9.40;;;8.37;;
12826;SDS011;66927;48.812;9.118;2024-03-02T02:58:48;8.07;;;7.23;;
12826;SDS011;66927;48.812;9.118;2024-03-02T03:01:17;9.60;;;7.97;;
12826;SDS011;66927;48.812;9.118;2024-03-02T03:03:45;8.50;;;7.60;;
12826;SDS011;66927;48.812;9.118;2024-03-02T03:06:11;8.77;;;7.57;;
12826;SDS011;66927;48.812;9.118;2024-03-02T03:08:37;9.07;;;7.37;;
12826;SDS011;66927;48.812;9.118;2024-03-02T03:11:03;7.87;;;7.10;;
12826;SDS011;66927;48.812;9.118;2024-03-02T03:13:30;9.60;;;8.10;;
12826;SDS011;66927;48.812;9.118;2024-03-02T03:15:56;10.17;;;8.20;;
12826;SDS011;66927;48.812;9.118;2024-03-02T03:18:21;9.13;;;7.67;;
12826;SDS011;66927;48.812;9.118;2024-03-02T03:20:48;10.60;;;8.47;;
12826;SDS011;66927;48.812;9.118;2024-03-02T03:23:15;10.93;;;8.40;;
12826;SDS011;66927;48.812;9.118;2024-03-02T03:25:41;8.87;;;7.83;;
12826;SDS011;66927;48.812;9.118;2024-03-02T03:28:08;10.37;;;8.17;;
12826;SDS011;66927;48.812;9.118;2024-03-02T03:30:36;9.03;;;8.00;;
12826;SDS011;66927;48.812;9.118;2024-03-02T03:33:02;9.47;;;8.47;;
12826;SDS011;66927;48.812;9.118;2024-03-02T03:35:28;10.03;;;8.90;;
12826;SDS011;66927;48.812;9.118;2024-03-02T03:37:54;8.60;;;7.70;;
12826;SDS011;66927;48.812;9.118;2024-03-02T03:40:19;10.57;;;8.90;;
12826;SDS011;66927;48.812;9.118;2024-03-02T03:42:45;11.00;;;7.63;;
12826;SDS011;66927;48.812;9.118;2024-03-02T03:45:10;9.43;;;8.30;;
12826;SDS011;66927;48.812;9.118;2024-03-02T03:47:36;10.27;;;8.03;;
12826;SDS011;66927;48.812;9.118;2024-03-02T03:50:02;9.20;;;8.30;;
12826;SDS011;66927;48.812;9.118;2024-03-02T03:52:31;12.03;;;8.60;;
12826;SDS011;66927;48.812;9.118;2024-03-02T03:54:57;9.63;;;8.43;;
12826;SDS011;66927;48.812;9.118;2024-03-02T03:57:23;8.80;;;7.83;;
12826;SDS011;66927;48.812;9.118;2024-03-02T03:59:48;9.43;;;8.23;;
12826;SDS011;66927;48.812;9.118;2024-03-02T04:02:14;9.10;;;8.20;;
12826;SDS011;66927;48.812;9.118;2024-03-02T04:04:39;8.63;;;7.63;;
12826;SDS011;66927;48.812;9.118;2024-03-02T04:07:05;8.80;;;7.87;;
12826;SDS011;66927;48.812;9.118;2024-03-02T04:09:31;9.77;;;8.47;;
12826;SDS011;66927;48.812;9.118;2024-03-02T04:11:56;10.50;;;8.50;;
12826;SDS011;66927;48.812;9.118;2024-03-02T04:14:22;10.70;;;8.03;;
12826;SDS011;66927;48.812;9.118;2024-03-02T04:16:47;9.53;;;8.63;;
12826;SDS011;66927;48.812;9.118;2024-03-02T04:19:13;9.67;;;8.10;;
12826;SDS011;66927;48.812;9.118;2024-03-02T04:21:39;9.47;;;7.70;;
12826;SDS011;66927;48.812;9.118;2024-03-02T04:24:05;8.60;;;7.70;;
12826;SDS011;66927;48.812;9.118;2024-03-02T04:26:30;8.40;;;7.30;;
12826;SDS011;66927;48.812;9.118;2024-03-02T04:28:57;7.97;;;7.07;;
12826;SDS011;66927;48.812;9.118;2024-03-02T04:31:23;8.53;;;7.20;;
12826;SDS011;66927;48.812;9.118;2024-03-02T04:33:48;8.03;;;6.63;;
12826;SDS011;66927;48.812;9.118;2024-03-02T04:36:14;8.80;;;6.73;;
12826;SDS011;66927;48.812;9.118;2024-03-02T04:38:39;7.10;;;6.40;;
12826;SDS011;66927;48.812;9.118;2024-03-02T04:41:05;8.10;;;7.30;;
12826;SDS011;66927;48.812;9.118;2024-03-02T04:43:32;8.13;;;7.30;;
12826;SDS011;66927;48.812;9.118;2024-03-02T04:45:58;8.23;;;7.43;;
12826;SDS011;66927;48.812;9.118;2024-03-02T04:48:24;8.47;;;7.00;;
12826;SDS011;66927;48.812;9.118;2024-03-02T04:50:50;10.37;;;8.40;;
12826;SDS011;66927;48.812;9.118;2024-03-02T04:53:17;9.23;;;8.27;;
12826;SDS011;66927;48.812;9.118;2024-03-02T04:55:42;10.00;;;8.07;;
12826;SDS011;66927;48.812;9.118;2024-03-02T04:58:08;8.77;;;7.53;;
12826;SDS011;66927;48.812;9.118;2024-03-02T05:00:34;9.07;;;8.13;;
12826;SDS011;66927;48.812;9.118;2024-03-02T05:03:00;8.83;;;7.63;;
12826;SDS011;66927;48.812;9.118;2024-03-02T05:05:26;8.47;;;7.57;;
12826;SDS011;66927;48.812;9.118;2024-03-02T05:07:52;8.20;;;7.30;;
12826;SDS011;66927;48.812;9.118;2024-03-02T05:10:17;8.33;;;7.40;;
12826;SDS011;66927;48.812;9.118;2024-03-02T05:12:43;7.63;;;6.93;;
12826;SDS011;66927;48.812;9.118;2024-03-02T05:15:15;9.07;;;8.03;;
12826;SDS011;66927;48.812;9.118;2024-03-02T05:17:41;8.20;;;7.40;;
12826;SDS011;66927;48.812;9.118;2024-03-02T05:20:10;8.03;;;7.23;;
12826;SDS011;66927;48.812;9.118;2024-03-02T05:22:37;8.50;;;7.53;;
12826;SDS011;66927;48.812;9.118;2024-03-02T05:25:03;8.50;;;7.60;;
12826;SDS011;66927;48.812;9.118;2024-03-02T05:27:29;8.47;;;7.60;;
12826;SDS011;66927;48.812;9.118;2024-03-02T05:29:56;8.60;;;7.60;;
12826;SDS011;66927;48.812;9.118;2024-03-02T05:32:22;8.87;;;7.50;;
12826;SDS011;66927;48.812;9.118;2024-03-02T05:34:48;10.83;;;8.77;;
12826;SDS011;66927;48.812;9.118;2024-03-02T05:37:15;9.83;;;8.30;;
12826;SDS011;66927;48.812;9.118;2024-03-02T05:39:41;9.97;;;7.53;;
12826;SDS011;66927;48.812;9.118;2024-03-02T05:42:08;8.77;;;7.70;;
12826;SDS011;66927;48.812;9.118;2024-03-02T05:44:34;11.03;;;7.83;;
12826;SDS011;66927;48.812;9.118;2024-03-02T05:47:01;12.90;;;8.60;;
12826;SDS011;66927;48.812;9.118;2024-03-02T05:49:26;10.37;;;7.93;;
12826;SDS011;66927;48.812;9.118;2024-03-02T05:51:52;9.43;;;8.20;;
12826;SDS011;66927;48.812;9.118;2024-03-02T05:54:17;10.43;;;8.47;;
12826;SDS011;66927;48.812;9.118;2024-03-02T05:56:43;21.50;;;16.50;;
12826;SDS011;66927;48.812;9.118;2024-03-02T05:59:09;52.33;;;38.87;;
12826;SDS011;66927;48.812;9.118;2024-03-02T06:01:44;13.17;;;11.27;;
12826;SDS011;66927;48.812;9.118;2024-03-02T06:04:17;10.83;;;9.00;;
12826;SDS011;66927;48.812;9.118;2024-03-02T06:06:42;9.20;;;7.43;;
12826;SDS011;66927;48.812;9.118;2024-03-02T06:09:09;8.90;;;6.90;;
12826;SDS011;66927;48.812;9.118;2024-03-02T06:11:37;8.20;;;6.87;;
12826;SDS011;66927;48.812;9.118;2024-03-02T06:14:04;8.70;;;7.20;;
12826;SDS011;66927;48.812;9.118;2024-03-02T06:16:30;8.77;;;7.30;;
12826;SDS011;66927;48.812;9.118;2024-03-02T06:18:57;10.07;;;7.70;;
12826;SDS011;66927;48.812;9.118;2024-03-02T06:21:25;8.37;;;7.47;;
12826;SDS011;66927;48.812;9.118;2024-03-02T06:23:51;8.23;;;6.87;;
12826;SDS011;66927;48.812;9.118;2024-03-02T06:26:17;9.67;;;7.77;;
12826;SDS011;66927;48.812;9.118;2024-03-02T06:28:43;8.47;;;7.57;;
12826;SDS011;66927;48.812;9.118;2024-03-02T06:31:09;8.17;;;7.37;;
12826;SDS011;66927;48.812;9.118;2024-03-02T06:33:35;16.97;;;13.13;;
12826;SDS011;66927;48.812;9.118;2024-03-02T06:36:00;10.40;;;9.10;;
12826;SDS011;66927;48.812;9.118;2024-03-02T06:38:27;9.43;;;8.43;;
12826;SDS011;66927;48.812;9.118;2024-03-02T06:40:52;9.40;;;7.03;;
12826;SDS011;66927;48.812;9.118;2024-03-02T06:43:18;8.33;;;7.10;;
12826;SDS011;66927;48.812;9.118;2024-03-02T06:45:48;9.67;;;7.17;;
12826;SDS011;66927;48.812;9.118;2024-03-02T06:48:14;8.53;;;6.57;;
12826;SDS011;66927;48.812;9.118;2024-03-02T06:50:43;9.23;;;7.40;;
12826;SDS011;66927;48.812;9.118;2024-03-02T06:53:09;8.73;;;7.77;;
12826;SDS011;66927;48.812;9.118;2024-03-02T06:55:35;8.57;;;7.67;;
12826;SDS011;66927;48.812;9.118;2024-03-02T06:58:00;8.23;;;7.30;;
12826;SDS011;66927;48.812;9.118;2024-03-02T07:00:26;10.47;;;8.77;;
12826;SDS011;66927;48.812;9.118;2024-03-02T07:02:52;13.80;;;11.23;;
12826;SDS011;66927;48.812;9.118;2024-03-02T07:05:17;9.00;;;8.10;;
12826;SDS011;66927;48.812;9.118;2024-03-02T07:07:43;12.77;;;11.30;;
12826;SDS011;66927;48.812;9.118;2024-03-02T07:10:08;9.50;;;8.03;;
12826;SDS011;66927;48.812;9.118;2024-03-02T07:12:35;7.53;;;6.80;;
12826;SDS011;66927;48.812;9.118;2024-03-02T07:15:01;11.33;;;7.53;;
12826;SDS011;66927;48.812;9.118;2024-03-02T07:17:28;8.40;;;6.70;;
12826;SDS011;66927;48.812;9.118;2024-03-02T07:19:54;8.13;;;6.90;;
12826;SDS011;66927;48.812;9.118;2024-03-02T07:22:19;7.73;;;6.90;;
12826;SDS011;66927;48.812;9.118;2024-03-02T07:24:46;6.83;;;5.83;;
12826;SDS011;66927;48.812;9.118;2024-03-02T07:27:12;6.67;;;5.40;;
12826;SDS011;66927;48.812;9.118;2024-03-02T07:29:38;6.53;;;5.83;;
12826;SDS011;66927;48.812;9.118;2024-03-02T07:32:05;6.73;;;6.03;;
12826;SDS011;66927;48.812;9.118;2024-03-02T07:34:31;7.33;;;6.33;;
12826;SDS011;66927;48.812;9.118;2024-03-02T07:36:57;6.67;;;5.80;;
12826;SDS011;66927;48.812;9.118;2024-03-02T07:39:23;7.33;;;6.03;;
12826;SDS011;66927;48.812;9.118;2024-03-02T07:41:49;7.40;;;6.20;;
12826;SDS011;66927;48.812;9.118;2024-03-02T07:44:15;6.73;;;5.40;;
12826;SDS011;66927;48.812;9.118;2024-03-02T07:46:41;8.07;;;5.60;;
12826;SDS011;66927;48.812;9.118;2024-03-02T07:49:08;8.90;;;6.10;;
12826;SDS011;66927;48.812;9.118;2024-03-02T07:51:34;7.07;;;6.37;;
12826;SDS011;66927;48.812;9.118;2024-03-02T07:53:59;7.37;;;6.37;;
12826;SDS011;66927;48.812;9.118;2024-03-02T07:56:25;6.80;;;6.10;;
12826;SDS011;66927;48.812;9.118;2024-03-02T07:58:51;6.03;;;5.20;;
12826;SDS011;66927;48.812;9.118;2024-03-02T08:01:17;6.93;;;5.50;;
12826;SDS011;66927;48.812;9.118;2024-03-02T08:03:43;6.63;;;5.67;;
12826;SDS011;66927;48.812;9.118;2024-03-02T08:06:13;18.90;;;14.60;;
12826;SDS011;66927;48.812;9.118;2024-03-02T08:08:42;26.13;;;21.33;;
12826;SDS011;66927;48.812;9.118;2024-03-02T08:11:08;19.33;;;15.10;;
12826;SDS011;66927;48.812;9.118;2024-03-02T08:13:34;14.17;;;10.57;;
12826;SDS011;66927;48.812;9.118;2024-03-02T08:16:00;9.17;;;6.27;;
12826;SDS011;66927;48.812;9.118;2024-03-02T08:18:28;7.17;;;5.93;;
12826;SDS011;66927;48.812;9.118;2024-03-02T08:20:53;5.97;;;5.37;;
12826;SDS011;66927;48.812;9.118;2024-03-02T08:23:19;7.63;;;6.33;;
12826;SDS011;66927;48.812;9.118;2024-03-02T08:25:46;7.23;;;6.53;;
12826;SDS011;66927;48.812;9.118;2024-03-02T08:28:12;6.30;;;5.13;;
12826;SDS011;66927;48.812;9.118;2024-03-02T08:30:37;6.20;;;5.60;;
12826;SDS011;66927;48.812;9.118;2024-03-02T08:33:03;6.00;;;5.40;;
12826;SDS011;66927;48.812;9.118;2024-03-02T08:35:29;6.93;;;6.30;;
12826;SDS011;66927;48.812;9.118;2024-03-02T08:37:56;7.43;;;6.53;;
12826;SDS011;66927;48.812;9.118;2024-03-02T08:40:22;5.77;;;5.17;;
12826;SDS011;66927;48.812;9.118;2024-03-02T08:42:48;8.67;;;5.83;;
12826;SDS011;66927;48.812;9.118;2024-03-02T08:45:14;5.50;;;4.87;;
12826;SDS011;66927;48.812;9.118;2024-03-02T08:47:40;5.40;;;4.80;;
12826;SDS011;66927;48.812;9.118;2024-03-02T08:50:06;5.57;;;4.87;;
12826;SDS011;66927;48.812;9.118;2024-03-02T08:52:33;5.73;;;4.60;;
12826;SDS011;66927;48.812;9.118;2024-03-02T08:54:59;13.93;;;11.83;;
12826;SDS011;66927;48.812;9.118;2024-03-02T08:57:24;5.70;;;5.00;;
12826;SDS011;66927;48.812;9.118;2024-03-02T08:59:50;6.00;;;4.40;;
12826;SDS011;66927;48.812;9.118;2024-03-02T09:02:16;5.47;;;4.77;;
12826;SDS011;66927;48.812;9.118;2024-03-02T09:04:41;5.10;;;4.33;;
12826;SDS011;66927;48.812;9.118;2024-03-02T09:07:07;4.30;;;3.83;;
12826;SDS011;66927;48.812;9.118;2024-03-02T09:09:32;6.03;;;4.27;;
12826;SDS011;66927;48.812;9.118;2024-03-02T09:11:58;5.90;;;4.63;;
12826;SDS011;66927;48.812;9.118;2024-03-02T09:14:24;4.93;;;3.97;;
12826;SDS011;66927;48.812;9.118;2024-03-02T09:16:50;7.73;;;6.93;;
12826;SDS011;66927;48.812;9.118;2024-03-02T09:19:15;4.63;;;4.20;;
12826;SDS011;66927;48.812;9.118;2024-03-02T09:21:41;8.07;;;3.77;;
12826;SDS011;66927;48.812;9.118;2024-03-02T09:24:08;5.83;;;3.90;;
12826;SDS011;66927;48.812;9.118;2024-03-02T09:26:35;3.43;;;3.13;;
12826;SDS011;66927;48.812;9.118;2024-03-02T09:29:00;3.83;;;3.43;;
12826;SDS011;66927;48.812;9.118;2024-03-02T09:31:26;4.17;;;3.77;;
12826;SDS011;66927;48.812;9.118;2024-03-02T09:33:52;3.33;;;3.03;;
12826;SDS011;66927;48.812;9.118;2024-03-02T09:36:18;3.47;;;3.17;;
12826;SDS011;66927;48.812;9.118;2024-03-02T09:38:44;4.77;;;3.70;;
12826;SDS011;66927;48.812;9.118;2024-03-02T09:41:11;3.30;;;3.00;;
12826;SDS011;66927;48.812;9.118;2024-03-02T09:43:37;3.57;;;3.27;;
12826;SDS011;66927;48.812;9.118;2024-03-02T09:46:03;4.10;;;3.27;;
12826;SDS011;66927;48.812;9.118;2024-03-02T09:48:29;3.30;;;3.00;;
12826;SDS011;66927;48.812;9.118;2024-03-02T09:50:55;4.77;;;2.80;;
12826;SDS011;66927;48.812;9.118;2024-03-02T09:53:22;5.13;;;3.53;;
12826;SDS011;66927;48.812;9.118;2024-03-02T09:55:48;3.83;;;3.43;;
12826;SDS011;66927;48.812;9.118;2024-03-02T09:58:14;3.50;;;3.20;;
12826;SDS011;66927;48.812;9.118;2024-03-02T10:00:39;2.93;;;2.53;;
12826;SDS011;66927;48.812;9.118;2024-03-02T10:03:05;4.13;;;3.13;;
12826;SDS011;66927;48.812;9.118;2024-03-02T10:05:37;3.67;;;2.80;;
12826;SDS011;66927;48.812;9.118;2024-03-02T10:08:03;2.83;;;2.53;;
12826;SDS011;66927;48.812;9.118;2024-03-02T10:10:36;3.00;;;2.70;;
12826;SDS011;66927;48.812;9.118;2024-03-02T10:13:05;2.73;;;2.53;;
12826;SDS011;66927;48.812;9.118;2024-03-02T10:15:32;2.80;;;2.60;;
12826;SDS011;66927;48.812;9.118;2024-03-02T10:17:58;2.83;;;2.53;;
12826;SDS011;66927;48.812;9.118;2024-03-02T10:20:24;2.93;;;2.63;;
12826;SDS011;66927;48.812;9.118;2024-03-02T10:22:53;3.70;;;2.80;;
12826;SDS011;66927;48.812;9.118;2024-03-02T10:25:32;3.23;;;2.60;;
12826;SDS011;66927;48.812;9.118;2024-03-02T10:27:58;2.63;;;2.43;;
12826;SDS011;66927;48.812;9.118;2024-03-02T10:30:24;4.10;;;2.73;;
12826;SDS011;66927;48.812;9.118;2024-03-02T10:32:52;2.27;;;2.07;;
12826;SDS011;66927;48.812;9.118;2024-03-02T10:35:19;3.17;;;2.77;;
12826;SDS011;66927;48.812;9.118;2024-03-02T10:37:46;2.97;;;2.60;;
12826;SDS011;66927;48.812;9.118;2024-03-02T10:40:13;3.67;;;2.70;;
12826;SDS011;66927;48.812;9.118;2024-03-02T10:42:39;2.90;;;2.60;;
12826;SDS011;66927;48.812;9.118;2024-03-02T10:45:08;2.50;;;2.30;;
12826;SDS011;66927;48.812;9.118;2024-03-02T10:47:38;3.27;;;2.97;;
12826;SDS011;66927;48.812;9.118;2024-03-02T10:50:07;2.80;;;2.60;;
12826;SDS011;66927;48.812;9.118;2024-03-02T10:52:36;2.93;;;2.40;;
12826;SDS011;66927;48.812;9.118;2024-03-02T10:55:04;3.30;;;2.80;;
12826;SDS011;66927;48.812;9.118;2024-03-02T10:57:40;3.27;;;2.80;;
12826;SDS011;66927;48.812;9.118;2024-03-02T11:00:11;4.17;;;3.70;;
12826;SDS011;66927;48.812;9.118;2024-03-02T11:03:23;4.40;;;3.50;;
12826;SDS011;66927;48.812;9.118;2024-03-02T11:05:37;3.13;;;2.83;;
12826;SDS011;66927;48.812;9.118;2024-03-02T11:08:11;2.50;;;2.30;;
12826;SDS011;66927;48.812;9.118;2024-03-02T11:10:43;3.17;;;2.70;;
12826;SDS011;66927;48.812;9.118;2024-03-02T11:13:22;2.47;;;2.27;;
12826;SDS011;66927;48.812;9.118;2024-03-02T11:15:53;2.70;;;2.50;;
12826;SDS011;66927;48.812;9.118;2024-03-02T11:18:21;2.77;;;2.57;;
12826;SDS011;66927;48.812;9.118;2024-03-02T11:20:47;3.27;;;2.50;;
12826;SDS011;66927;48.812;9.118;2024-03-02T11:23:13;2.57;;;2.37;;
12826;SDS011;66927;48.812;9.118;2024-03-02T11:25:40;2.50;;;2.10;;
12826;SDS011;66927;48.812;9.118;2024-03-02T11:28:09;2.50;;;2.30;;
12826;SDS011;66927;48.812;9.118;2024-03-02T11:35:32;3.03;;;2.73;;
12826;SDS011;66927;48.812;9.118;2024-03-02T11:37:59;2.23;;;2.03;;
12826;SDS011;66927;48.812;9.118;2024-03-02T11:40:28;2.60;;;2.40;;
12826;SDS011;66927;48.812;9.118;2024-03-02T11:42:54;2.47;;;2.27;;
12826;SDS011;66927;48.812;9.118;2024-03-02T11:45:24;2.30;;;2.10;;
12826;SDS011;66927;48.812;9.118;2024-03-02T11:47:52;2.70;;;1.90;;
12826;SDS011;66927;48.812;9.118;2024-03-02T11:53:02;3.03;;;2.33;;
12826;SDS011;66927;48.812;9.118;2024-03-02T11:55:36;1.80;;;1.70;;
12826;SDS011;66927;48.812;9.118;2024-03-02T11:58:06;1.50;;;1.40;;
12826;SDS011;66927;48.812;9.118;2024-03-02T12:00:34;2.17;;;1.80;;
12826;SDS011;66927;48.812;9.118;2024-03-02T12:03:01;2.10;;;1.67;;
12826;SDS011;66927;48.812;9.118;2024-03-02T12:05:28;28.27;;;3.40;;
12826;SDS011;66927;48.812;9.118;2024-03-02T12:08:02;34.93;;;4.47;;
12826;SDS011;66927;48.812;9.118;2024-03-02T12:10:29;1.87;;;1.70;;
12826;SDS011;66927;48.812;9.118;2024-03-02T12:12:59;3.33;;;1.53;;
12826;SDS011;66927;48.812;9.118;2024-03-02T12:15:29;5.63;;;4.87;;
12826;SDS011;66927;48.812;9.118;2024-03-02T12:17:56;3.57;;;1.67;;
12826;SDS011;66927;48.812;9.118;2024-03-02T12:20:24;0.90;;;0.90;;
12826;SDS011;66927;48.812;9.118;2024-03-02T12:22:51;2.10;;;1.07;;
12826;SDS011;66927;48.812;9.118;2024-03-02T12:25:23;1.37;;;1.27;;
12826;SDS011;66927;48.812;9.118;2024-03-02T12:27:49;0.83;;;0.83;;
12826;SDS011;66927;48.812;9.118;2024-03-02T12:30:17;1.23;;;0.90;;
12826;SDS011;66927;48.812;9.118;2024-03-02T12:32:44;0.80;;;0.80;;
12826;SDS011;66927;48.812;9.118;2024-03-02T12:35:10;0.90;;;0.90;;
12826;SDS011;66927;48.812;9.118;2024-03-02T12:37:58;1.00;;;0.90;;
12826;SDS011;66927;48.812;9.118;2024-03-02T12:40:23;1.13;;;1.03;;
12826;SDS011;66927;48.812;9.118;2024-03-02T12:42:50;2.20;;;0.80;;
12826;SDS011;66927;48.812;9.118;2024-03-02T12:45:16;0.80;;;0.80;;
12826;SDS011;66927;48.812;9.118;2024-03-02T12:47:48;0.90;;;0.90;;
12826;SDS011;66927;48.812;9.118;2024-03-02T12:50:15;1.10;;;1.00;;
12826;SDS011;66927;48.812;9.118;2024-03-02T12:52:41;1.30;;;1.07;;
12826;SDS011;66927;48.812;9.118;2024-03-02T12:55:07;1.00;;;0.90;;
12826;SDS011;66927;48.812;9.118;2024-03-02T12:57:33;2.20;;;1.20;;
12826;SDS011;66927;48.812;9.118;2024-03-02T12:59:59;5.23;;;1.10;;
12826;SDS011;66927;48.812;9.118;2024-03-02T13:02:34;2.03;;;1.30;;
12826;SDS011;66927;48.812;9.118;2024-03-02T13:05:00;1.30;;;1.20;;
12826;SDS011;66927;48.812;9.118;2024-03-02T13:07:26;1.40;;;1.13;;
12826;SDS011;66927;48.812;9.118;2024-03-02T13:09:53;1.17;;;1.07;;
12826;SDS011;66927;48.812;9.118;2024-03-02T13:12:23;1.20;;;1.10;;
12826;SDS011;66927;48.812;9.118;2024-03-02T13:14:52;1.50;;;1.40;;
12826;SDS011;66927;48.812;9.118;2024-03-02T13:17:20;1.50;;;1.40;;
12826;SDS011;66927;48.812;9.118;2024-03-02T13:22:20;3.23;;;1.30;;
12826;SDS011;66927;48.812;9.118;2024-03-02T13:24:46;1.57;;;1.47;;
12826;SDS011;66927;48.812;9.118;2024-03-02T13:27:12;1.40;;;1.30;;
12826;SDS011;66927;48.812;9.118;2024-03-02T13:29:38;1.37;;;1.27;;
12826;SDS011;66927;48.812;9.118;2024-03-02T13:32:04;2.17;;;1.80;;
12826;SDS011;66927;48.812;9.118;2024-03-02T13:34:30;2.17;;;1.53;;
12826;SDS011;66927;48.812;9.118;2024-03-02T13:36:56;1.43;;;1.33;;
12826;SDS011;66927;48.812;9.118;2024-03-02T13:39:21;1.63;;;1.47;;
12826;SDS011;66927;48.812;9.118;2024-03-02T13:41:48;1.43;;;1.30;;
12826;SDS011;66927;48.812;9.118;2024-03-02T13:44:18;1.40;;;1.30;;
12826;SDS011;66927;48.812;9.118;2024-03-02T13:46:44;1.97;;;1.50;;
12826;SDS011;66927;48.812;9.118;2024-03-02T13:49:11;1.50;;;1.40;;
12826;SDS011;66927;48.812;9.118;2024-03-02T13:51:37;1.10;;;1.00;;
12826;SDS011;66927;48.812;9.118;2024-03-02T13:54:03;1.23;;;1.13;;
12826;SDS011;66927;48.812;9.118;2024-03-02T13:56:29;1.77;;;1.40;;
12826;SDS011;66927;48.812;9.118;2024-03-02T13:58:55;1.60;;;1.50;;
12826;SDS011;66927;48.812;9.118;2024-03-02T14:01:21;3.53;;;1.47;;
12826;SDS011;66927;48.812;9.118;2024-03-02T14:03:46;2.67;;;1.60;;
12826;SDS011;66927;48.812;9.118;2024-03-02T14:06:12;1.57;;;1.47;;
12826;SDS011;66927;48.812;9.118;2024-03-02T14:08:38;1.53;;;1.43;;
12826;SDS011;66927;48.812;9.118;2024-03-02T14:11:04;2.70;;;1.50;;
12826;SDS011;66927;48.812;9.118;2024-03-02T14:13:29;2.03;;;1.50;;
12826;SDS011;66927;48.812;9.118;2024-03-02T14:15:55;1.40;;;1.30;;
12826;SDS011;66927;48.812;9.118;2024-03-02T14:18:21;1.53;;;1.43;;
12826;SDS011;66927;48.812;9.118;2024-03-02T14:20:47;1.87;;;1.70;;
12826;SDS011;66927;48.812;9.118;2024-03-02T14:23:17;2.33;;;1.70;;
12826;SDS011;66927;48.812;9.118;2024-03-02T14:25:44;2.30;;;1.60;;
12826;SDS011;66927;48.812;9.118;2024-03-02T14:28:11;1.73;;;1.40;;
12826;SDS011;66927;48.812;9.118;2024-03-02T14:30:37;1.63;;;1.53;;
12826;SDS011;66927;48.812;9.118;2024-03-02T14:33:03;2.33;;;1.60;;
12826;SDS011;66927;48.812;9.118;2024-03-02T14:35:29;1.70;;;1.50;;
12826;SDS011;66927;48.812;9.118;2024-03-02T14:37:54;1.57;;;1.47;;
12826;SDS011;66927;48.812;9.118;2024-03-02T14:40:22;1.57;;;1.40;;
12826;SDS011;66927;48.812;9.118;2024-03-02T14:42:51;1.30;;;1.20;;
12826;SDS011;66927;48.812;9.118;2024-03-02T14:45:17;1.20;;;1.10;;
12826;SDS011;66927;48.812;9.118;2024-03-02T14:47:43;1.77;;;1.43;;
12826;SDS011;66927;48.812;9.118;2024-03-02T14:50:08;2.83;;;1.40;;
12826;SDS011;66927;48.812;9.118;2024-03-02T14:52:35;1.93;;;1.40;;
12826;SDS011;66927;48.812;9.118;2024-03-02T14:55:01;1.60;;;1.50;;
12826;SDS011;66927;48.812;9.118;2024-03-02T14:57:27;1.30;;;1.20;;
12826;SDS011;66927;48.812;9.118;2024-03-02T14:59:53;9.30;;;7.30;;
12826;SDS011;66927;48.812;9.118;2024-03-02T15:02:19;4.13;;;3.67;;